Time;durP1;ratioP1;P1;durP2;ratioP2;P2;SDS_P1;SDS_P2;PMS_P1;PMS_P2;Temp;Humidity;BMP_temperature;BMP_pressure;BME280_temperature;BME280_humidity;BME280_pressure;Samples;Min_cycle;Max_cycle;Signal;HPM_P1;HPM_P2
2023/09/08 00:01:16;;;;;;;7.4;6.4;;;;;;;;;;;;;
2023/09/08 00:03:41;;;;;;;7.9;6.9;;;;;;;;;;;;;
2023/09/08 00:06:06;;;;;;;8.4;7.2;;;;;;;;;;;;;
2023/09/08 00:08:32;;;;;;;7.3;6.5;;;;;;;;;;;;;
2023/09/08 00:10:59;;;;;;;10.1;7.1;;;;;;;;;;;;;
2023/09/08 00:13:24;;;;;;;7.8;6.5;;;;;;;;;;;;;
2023/09/08 00:15:49;;;;;;;8.5;7;;;;;;;;;;;;;
2023/09/08 00:18:14;;;;;;;8;7.2;;;;;;;;;;;;;
2023/09/08 00:20:41;;;;;;;7.3;6.5;;;;;;;;;;;;;
2023/09/08 00:23:06;;;;;;;10.3;7.1;;;;;;;;;;;;;
2023/09/08 00:25:31;;;;;;;7.7;6.8;;;;;;;;;;;;;
2023/09/08 00:27:56;;;;;;;7.9;6.6;;;;;;;;;;;;;
2023/09/08 00:30:21;;;;;;;7.7;6.9;;;;;;;;;;;;;
2023/09/08 00:32:46;;;;;;;8.4;6.8;;;;;;;;;;;;;
2023/09/08 00:35:11;;;;;;;9.5;6.8;;;;;;;;;;;;;
2023/09/08 00:37:37;;;;;;;7.8;6.5;;;;;;;;;;;;;
2023/09/08 00:40:02;;;;;;;7.7;6.2;;;;;;;;;;;;;
2023/09/08 00:42:28;;;;;;;8.2;6.8;;;;;;;;;;;;;
2023/09/08 00:44:53;;;;;;;7.8;6.7;;;;;;;;;;;;;
2023/09/08 00:47:21;;;;;;;10.6;7.3;;;;;;;;;;;;;
2023/09/08 00:49:46;;;;;;;8.5;6.7;;;;;;;;;;;;;
2023/09/08 00:52:11;;;;;;;8.2;6.9;;;;;;;;;;;;;
2023/09/08 00:54:36;;;;;;;8.2;6.8;;;;;;;;;;;;;
2023/09/08 00:57:02;;;;;;;9.6;6.7;;;;;;;;;;;;;
2023/09/08 00:59:50;;;;;;;7.6;6.8;;;;;;;17.96;96.19531;940.6702;;;;
2023/09/08 01:02:15;;;;;;;8;6.7;;;;;;;17.97;95.71094;940.6892;;;;
2023/09/08 01:04:45;;;;;;;8.9;6.4;;;;;;;17.97;95.93164;940.6989;;;;
2023/09/08 01:07:10;;;;;;;7.9;6.8;;;;;;;17.81;96.65137;940.6922;;;;
2023/09/08 01:09:35;;;;;;;7.2;6.5;;;;;;;17.72;97.33887;940.6685;;;;
2023/09/08 01:12:01;;;;;;;7.2;6.4;;;;;;;17.74;97.19238;940.6005;;;;
2023/09/08 01:14:26;;;;;;;9.5;6.9;;;;;;;17.74;97.64551;940.6512;;;;
2023/09/08 01:16:52;;;;;;;7.8;6.8;;;;;;;17.77;97.5;940.7217;;;;
2023/09/08 01:19:17;;;;;;;8;6.4;;;;;;;17.81;98.03223;940.68;;;;
2023/09/08 01:21:44;;;;;;;8.5;7.2;;;;;;;17.9;97.26074;940.7202;;;;
2023/09/08 01:24:09;;;;;;;8;7.1;;;;;;;17.94;95.42676;940.6719;;;;
2023/09/08 01:26:35;;;;;;;10.1;7.3;;;;;;;17.7;97.52051;940.6141;;;;
2023/09/08 01:29:01;;;;;;;8.1;6.7;;;;;;;17.66;98.2207;940.6473;;;;
2023/09/08 01:31:25;;;;;;;8.5;7.2;;;;;;;17.66;98.28809;940.5853;;;;
2023/09/08 01:33:51;;;;;;;7.7;6.7;;;;;;;17.57;98.09473;940.5339;;;;
2023/09/08 01:36:16;;;;;;;7;6.2;;;;;;;17.63;97.7041;940.5164;;;;
2023/09/08 01:38:44;;;;;;;8.2;6.8;;;;;;;17.68;97.04102;940.5248;;;;
2023/09/08 01:41:09;;;;;;;9;6.9;;;;;;;17.67;97.17676;940.5305;;;;
2023/09/08 01:43:34;;;;;;;8.1;6.9;;;;;;;17.69;97.01758;940.4741;;;;
2023/09/08 01:45:59;;;;;;;7.6;6.6;;;;;;;17.64;96.50879;940.5002;;;;
2023/09/08 01:48:26;;;;;;;8.5;7.4;;;;;;;17.58;97.2168;940.5039;;;;
2023/09/08 01:50:51;;;;;;;8.5;6.6;;;;;;;17.65;96.38281;940.4984;;;;
2023/09/08 01:53:17;;;;;;;8.5;6.6;;;;;;;17.65;97.10254;940.5025;;;;
2023/09/08 01:55:42;;;;;;;7.6;6.8;;;;;;;17.64;96.93848;940.5067;;;;
2023/09/08 01:58:08;;;;;;;8.6;7;;;;;;;17.57;96.86426;940.5066;;;;
2023/09/08 02:00:33;;;;;;;8.5;7.3;;;;;;;17.5;96.96484;940.5179;;;;
2023/09/08 02:03:02;;;;;;;8.3;6.5;;;;;;;17.42;97.18066;940.531;;;;
2023/09/08 02:05:27;;;;;;;7.4;6.5;;;;;;;17.38;97.34473;940.4888;;;;
2023/09/08 02:07:55;;;;;;;8.1;6.6;;;;;;;17.33;97.19531;940.5344;;;;
2023/09/08 02:10:20;;;;;;;8;6.7;;;;;;;17.25;98.5459;940.5435;;;;
2023/09/08 02:12:44;;;;;;;9.6;6.7;;;;;;;17.18;99.51465;940.5264;;;;
2023/09/08 02:15:17;;;;;;;7.6;6.8;;;;;;;17.22;98.93164;940.5403;;;;
2023/09/08 02:17:41;;;;;;;7.7;6.9;;;;;;;17.23;98.73828;940.5453;;;;
2023/09/08 02:20:07;;;;;;;7.5;6.7;;;;;;;17.26;98.28125;940.4669;;;;
2023/09/08 02:22:32;;;;;;;7.7;6.3;;;;;;;17.34;97.71875;940.49;;;;
2023/09/08 02:24:59;;;;;;;9.8;7.6;;;;;;;17.33;97.69434;940.4626;;;;
2023/09/08 02:27:23;;;;;;;8.4;6.8;;;;;;;17.28;98.59766;940.478;;;;
2023/09/08 02:29:48;;;;;;;9.8;7.5;;;;;;;17.24;99.25098;940.4913;;;;
2023/09/08 02:32:14;;;;;;;7.8;6.7;;;;;;;17.32;97.95703;940.5257;;;;
2023/09/08 02:34:39;;;;;;;8.6;6.7;;;;;;;17.37;97.85254;940.4655;;;;
2023/09/08 02:37:04;;;;;;;8.8;7.3;;;;;;;17.21;100;940.4785;;;;
2023/09/08 02:39:29;;;;;;;9.4;7.2;;;;;;;17.24;100;940.5428;;;;
2023/09/08 02:41:55;;;;;;;9.1;7.1;;;;;;;17.38;100;940.4372;;;;
2023/09/08 02:44:21;;;;;;;8.3;6.7;;;;;;;17.4;99.26465;940.4336;;;;
2023/09/08 02:46:47;;;;;;;8;7.1;;;;;;;17.44;99.05176;940.4978;;;;
2023/09/08 02:49:12;;;;;;;8.9;6.5;;;;;;;17.4;98.95117;940.4843;;;;
2023/09/08 02:51:37;;;;;;;9.2;6.9;;;;;;;17.29;98.59766;940.539;;;;
2023/09/08 02:54:02;;;;;;;7;6.3;;;;;;;17.22;98.53711;940.5621;;;;
2023/09/08 02:56:28;;;;;;;9.2;7.1;;;;;;;17.22;97.97168;940.5744;;;;
2023/09/08 02:58:53;;;;;;;9.1;7.3;;;;;;;17.11;98.30469;940.5111;;;;
2023/09/08 03:01:21;;;;;;;9.5;6.7;;;;;;;17.03;98.79785;940.4573;;;;
2023/09/08 03:03:45;;;;;;;8;6.6;;;;;;;16.99;99.14746;940.5388;;;;
2023/09/08 03:06:10;;;;;;;7.4;6.7;;;;;;;16.89;100;940.5045;;;;
2023/09/08 03:08:36;;;;;;;9.1;7.3;;;;;;;16.63;100;940.5019;;;;
2023/09/08 03:11:01;;;;;;;9.7;7.3;;;;;;;16.59;100;940.5325;;;;
2023/09/08 03:13:28;;;;;;;9.2;7.4;;;;;;;16.67;100;940.5347;;;;
2023/09/08 03:15:52;;;;;;;9.6;7.2;;;;;;;16.61;100;940.5629;;;;
2023/09/08 03:18:20;;;;;;;8;6.8;;;;;;;16.75;100;940.5549;;;;
2023/09/08 03:20:45;;;;;;;8.1;6.7;;;;;;;16.83;100;940.5687;;;;
2023/09/08 03:23:12;;;;;;;8.4;6.9;;;;;;;16.79;100;940.54;;;;
2023/09/08 03:25:37;;;;;;;7.6;6.9;;;;;;;16.81;100;940.4899;;;;
2023/09/08 03:28:06;;;;;;;9.8;7.4;;;;;;;16.62;100;940.49;;;;
2023/09/08 03:30:31;;;;;;;8.4;6.9;;;;;;;16.63;100;940.5187;;;;
2023/09/08 03:32:58;;;;;;;7.2;6.5;;;;;;;16.57;100;940.5014;;;;
2023/09/08 03:35:24;;;;;;;8.5;6.5;;;;;;;16.58;100;940.5374;;;;
2023/09/08 03:37:53;;;;;;;7.8;6.9;;;;;;;16.69;100;940.5723;;;;
2023/09/08 03:40:25;;;;;;;9;6.8;;;;;;;16.51;100;940.5639;;;;
2023/09/08 03:42:52;;;;;;;7.8;6.4;;;;;;;16.63;100;940.6024;;;;
2023/09/08 03:45:17;;;;;;;8;7.1;;;;;;;16.45;100;940.6039;;;;
2023/09/08 03:47:45;;;;;;;9;6.9;;;;;;;16.61;100;940.5709;;;;
2023/09/08 03:50:10;;;;;;;8.5;6.9;;;;;;;16.76;100;940.5812;;;;
2023/09/08 03:52:35;;;;;;;7.7;6.9;;;;;;;16.77;100;940.6166;;;;
2023/09/08 03:55:00;;;;;;;7.6;6.8;;;;;;;16.54;100;940.6014;;;;
2023/09/08 03:57:25;;;;;;;9.1;7.2;;;;;;;16.63;100;940.6169;;;;
2023/09/08 03:59:51;;;;;;;8.2;6.9;;;;;;;16.7;100;940.5609;;;;
2023/09/08 04:02:27;;;;;;;10.9;7.4;;;;;;;16.68;100;940.6118;;;;
2023/09/08 04:04:52;;;;;;;8.1;7;;;;;;;16.64;100;940.5572;;;;
2023/09/08 04:07:18;;;;;;;7.6;6.4;;;;;;;16.63;100;940.5397;;;;
2023/09/08 04:09:43;;;;;;;8.8;7.9;;;;;;;16.4;100;940.6425;;;;
2023/09/08 04:12:10;;;;;;;9.9;8.1;;;;;;;16.29;100;940.6725;;;;
2023/09/08 04:14:34;;;;;;;10.6;7.7;;;;;;;16.37;100;940.6541;;;;
2023/09/08 04:17:00;;;;;;;9;7.4;;;;;;;16.51;100;940.662;;;;
2023/09/08 04:19:25;;;;;;;9.2;7.2;;;;;;;16.56;100;940.6808;;;;
2023/09/08 04:21:51;;;;;;;8.2;6.9;;;;;;;16.63;100;940.657;;;;
2023/09/08 04:24:16;;;;;;;8.9;6.8;;;;;;;16.69;100;940.6342;;;;
2023/09/08 04:26:43;;;;;;;10;7.4;;;;;;;16.65;99.93848;940.7108;;;;
2023/09/08 04:29:08;;;;;;;15.2;10.1;;;;;;;16.59;99.71777;940.7263;;;;
2023/09/08 04:31:33;;;;;;;18.9;10.8;;;;;;;16.56;99.57227;940.7419;;;;
2023/09/08 04:33:59;;;;;;;18.9;11.3;;;;;;;16.6;99.26758;940.7439;;;;
2023/09/08 04:36:24;;;;;;;18.6;10.4;;;;;;;16.61;99.0498;940.7253;;;;
2023/09/08 04:38:49;;;;;;;12.7;9;;;;;;;16.62;98.9707;940.7665;;;;
2023/09/08 04:41:16;;;;;;;12.2;8.1;;;;;;;16.73;98.34668;940.7698;;;;
2023/09/08 04:43:41;;;;;;;11.6;7.8;;;;;;;16.8;97.5752;940.7305;;;;
2023/09/08 04:46:08;;;;;;;10.8;7.6;;;;;;;16.6;99.8125;940.772;;;;
2023/09/08 04:48:32;;;;;;;10.2;7.7;;;;;;;16.54;100;940.8159;;;;
2023/09/08 04:51:00;;;;;;;10.9;6.7;;;;;;;16.54;100;940.7405;;;;
2023/09/08 04:53:24;;;;;;;11;8.2;;;;;;;16.46;100;940.812;;;;
2023/09/08 04:55:50;;;;;;;10.8;7.3;;;;;;;16.31;100;940.7977;;;;
2023/09/08 04:58:15;;;;;;;10.1;7.2;;;;;;;16.4;100;940.805;;;;
2023/09/08 05:00:42;;;;;;;12.5;7.1;;;;;;;16.42;100;940.7544;;;;
2023/09/08 05:03:07;;;;;;;9.8;7.1;;;;;;;16.16;100;940.7336;;;;
2023/09/08 05:05:34;;;;;;;8.7;7.4;;;;;;;16.15;100;940.7224;;;;
2023/09/08 05:07:59;;;;;;;11.5;7.6;;;;;;;16.09;100;940.7124;;;;
2023/09/08 05:10:26;;;;;;;9.3;7.5;;;;;;;16.05;100;940.7754;;;;
2023/09/08 05:12:51;;;;;;;9.3;6.9;;;;;;;16.26;100;940.7668;;;;
2023/09/08 05:15:21;;;;;;;10.5;7.5;;;;;;;16.46;100;940.7653;;;;
2023/09/08 05:17:44;;;;;;;9.3;7.3;;;;;;;16.61;100;940.7921;;;;
2023/09/08 05:20:09;;;;;;;7.3;6.4;;;;;;;16.59;100;940.7794;;;;
2023/09/08 05:22:35;;;;;;;8.4;7.3;;;;;;;16.71;99.76758;940.7434;;;;
2023/09/08 05:25:00;;;;;;;8.1;6.4;;;;;;;16.69;99.23047;940.7411;;;;
2023/09/08 05:27:25;;;;;;;8.7;6.9;;;;;;;16.69;99.10352;940.7781;;;;
2023/09/08 05:29:53;;;;;;;8.5;6.6;;;;;;;16.9;98.45508;940.7683;;;;
2023/09/08 05:32:18;;;;;;;8.5;6.6;;;;;;;17.07;97.16016;940.7875;;;;
2023/09/08 05:34:44;;;;;;;8.2;6.8;;;;;;;17.14;95.87793;940.8745;;;;
2023/09/08 05:37:09;;;;;;;7.5;6.5;;;;;;;17.2;96.21484;940.84;;;;
2023/09/08 05:39:34;;;;;;;7.7;6.5;;;;;;;17.2;95.98242;940.8705;;;;
2023/09/08 05:41:59;;;;;;;8.9;6.6;;;;;;;17.32;96.19434;940.8992;;;;
2023/09/08 05:44:27;;;;;;;8.8;6.9;;;;;;;17.57;95.29785;940.9019;;;;
2023/09/08 05:46:51;;;;;;;8.3;6.4;;;;;;;17.71;94.64453;940.8683;;;;
2023/09/08 05:49:19;;;;;;;7.3;6.1;;;;;;;17.94;94.12402;940.8702;;;;
2023/09/08 05:51:44;;;;;;;11.8;6.5;;;;;;;18.57;92.13086;940.8426;;;;
2023/09/08 05:54:09;;;;;;;7.6;5.9;;;;;;;19.52;87.37598;940.9151;;;;
2023/09/08 05:56:34;;;;;;;6.6;5.3;;;;;;;20.39;81.53516;940.8775;;;;
2023/09/08 05:59:01;;;;;;;5.9;5.3;;;;;;;20.96;78.46973;940.8434;;;;
2023/09/08 06:01:26;;;;;;;6.5;5;;;;;;;21.61;75.14355;940.867;;;;
2023/09/08 06:03:54;;;;;;;6.3;5.5;;;;;;;22.03;73.30371;940.8861;;;;
2023/09/08 06:06:19;;;;;;;6.7;5.5;;;;;;;22.45;72.09473;940.8608;;;;
2023/09/08 06:08:45;;;;;;;6.7;5.3;;;;;;;22.52;71.29492;940.8677;;;;
2023/09/08 06:11:12;;;;;;;6.9;5;;;;;;;23.12;68.62988;940.8445;;;;
2023/09/08 06:13:36;;;;;;;7.3;4.9;;;;;;;23.69;66.33105;940.8802;;;;
2023/09/08 06:16:01;;;;;;;5.5;4.9;;;;;;;24.26;65.40234;940.8716;;;;
2023/09/08 06:18:26;;;;;;;5.3;4.8;;;;;;;24.62;63.15625;940.8954;;;;
2023/09/08 06:20:51;;;;;;;5.8;4.5;;;;;;;24.32;63.41895;940.8502;;;;
2023/09/08 06:23:17;;;;;;;5.7;4.5;;;;;;;24.6;62.88086;940.8539;;;;
2023/09/08 06:25:43;;;;;;;5.6;4.6;;;;;;;25.22;59.58203;940.7545;;;;
2023/09/08 06:28:08;;;;;;;6;4.9;;;;;;;24.73;63.26563;940.8153;;;;
2023/09/08 06:30:35;;;;;;;5.1;4.6;;;;;;;25.39;60.91504;940.7475;;;;
2023/09/08 06:33:00;;;;;;;6.4;4.3;;;;;;;24.47;61.61426;940.8063;;;;
2023/09/08 06:35:27;;;;;;;4.9;4.4;;;;;;;24.7;63.37988;940.8156;;;;
2023/09/08 06:37:52;;;;;;;4.7;4.2;;;;;;;24.7;61.11426;940.798;;;;
2023/09/08 06:40:19;;;;;;;5.3;4.5;;;;;;;24.56;63.03027;940.8561;;;;
2023/09/08 06:42:44;;;;;;;6.8;4.5;;;;;;;23.87;64.91016;940.9006;;;;
2023/09/08 06:45:09;;;;;;;7.2;4.7;;;;;;;24.38;63.68848;940.9045;;;;
2023/09/08 06:47:34;;;;;;;9.4;5.8;;;;;;;24.36;63.68457;940.8574;;;;
2023/09/08 06:50:00;;;;;;;6.2;5.4;;;;;;;24.24;63.92676;940.8812;;;;
2023/09/08 06:52:25;;;;;;;7.3;4.6;;;;;;;24.76;62.19824;940.8533;;;;
2023/09/08 06:54:51;;;;;;;6.1;4.3;;;;;;;24.3;64.73633;940.8599;;;;
2023/09/08 06:57:16;;;;;;;5.2;4.6;;;;;;;24.47;65.59766;940.8402;;;;
2023/09/08 06:59:43;;;;;;;5.3;4.5;;;;;;;24.78;62.80078;940.8786;;;;
2023/09/08 07:02:08;;;;;;;6.6;4.4;;;;;;;24.5;63.8457;940.8376;;;;
2023/09/08 07:04:34;;;;;;;6.4;4.8;;;;;;;24.22;66.12598;940.8331;;;;
2023/09/08 07:07:02;;;;;;;7.4;4.7;;;;;;;24.25;65.67188;940.8616;;;;
2023/09/08 07:09:24;;;;;;;5.5;4.3;;;;;;;24.35;64.37891;940.7601;;;;
2023/09/08 07:11:50;;;;;;;5.5;4.5;;;;;;;25.33;62.34766;940.8152;;;;
2023/09/08 07:14:15;;;;;;;5.9;4.5;;;;;;;25.98;59.54102;940.7547;;;;
2023/09/08 07:19:00;;;;;;;5.6;4.7;;;;;;;26.29;56.67188;940.7054;;;;
2023/09/08 07:21:24;;;;;;;6.9;4.8;;;;;;;27.08;56.35547;940.6962;;;;
2023/09/08 07:23:50;;;;;;;6;4.6;;;;;;;28.06;53.77051;940.7545;;;;
2023/09/08 07:26:16;;;;;;;6.5;4.8;;;;;;;28.3;51.04199;940.7417;;;;
2023/09/08 07:28:40;;;;;;;6.3;5.1;;;;;;;28.2;51.30273;940.7346;;;;
2023/09/08 07:31:06;;;;;;;5.7;4.5;;;;;;;29.38;49.75781;940.74;;;;
2023/09/08 07:33:30;;;;;;;5.9;5.1;;;;;;;29.59;49.69727;940.7004;;;;
2023/09/08 07:35:56;;;;;;;6.5;4.4;;;;;;;29.66;49.02539;940.72;;;;
2023/09/08 07:38:21;;;;;;;7.3;4.5;;;;;;;29.41;48.96191;940.6984;;;;
2023/09/08 07:40:46;;;;;;;6.4;4.7;;;;;;;29.82;48.42285;940.738;;;;
2023/09/08 07:43:13;;;;;;;6.1;4.5;;;;;;;31.11;46.95801;940.7148;;;;
2023/09/08 07:45:40;;;;;;;6.7;5;;;;;;;29.9;47.5127;940.7696;;;;
2023/09/08 07:48:05;;;;;;;6;4.6;;;;;;;29.29;49.71289;940.7503;;;;
2023/09/08 07:50:31;;;;;;;5.2;4.7;;;;;;;30.42;47.52051;940.7664;;;;
2023/09/08 07:52:57;;;;;;;4.9;4.4;;;;;;;28.16;51.23926;940.8122;;;;
2023/09/08 07:55:23;;;;;;;4.9;4.4;;;;;;;28.06;51.14453;940.8011;;;;
2023/09/08 07:57:48;;;;;;;7.2;4.5;;;;;;;27.66;51.09863;940.755;;;;
2023/09/08 08:00:13;;;;;;;4.9;4.4;;;;;;;26.43;54.19141;940.697;;;;
2023/09/08 08:02:41;;;;;;;5.2;4.7;;;;;;;26.12;57.5957;940.7558;;;;
2023/09/08 08:05:07;;;;;;;5.2;4.6;;;;;;;26.15;57.87207;940.7388;;;;
2023/09/08 08:07:32;;;;;;;5.3;4.8;;;;;;;27.25;55.34473;940.738;;;;
2023/09/08 08:09:58;;;;;;;4.8;4.4;;;;;;;28.12;52.73145;940.7512;;;;
2023/09/08 08:12:23;;;;;;;5.4;4.6;;;;;;;28.23;51.29492;940.7222;;;;
2023/09/08 08:14:48;;;;;;;5.1;4.6;;;;;;;28.56;52.5332;940.6884;;;;
2023/09/08 08:17:13;;;;;;;6.4;4.2;;;;;;;27.63;51.96191;940.6558;;;;
2023/09/08 08:19:38;;;;;;;4.9;4.4;;;;;;;27.71;54.71387;940.6237;;;;
2023/09/08 08:22:04;;;;;;;5.8;4.6;;;;;;;28.5;52.50195;940.622;;;;
2023/09/08 08:24:29;;;;;;;5.3;4.8;;;;;;;28.83;50.88672;940.5959;;;;
2023/09/08 08:26:55;;;;;;;4.9;4.4;;;;;;;28.96;51.61523;940.5934;;;;
2023/09/08 08:29:20;;;;;;;5.1;4.6;;;;;;;29.32;50.83496;940.524;;;;
2023/09/08 08:31:47;;;;;;;5.2;4.7;;;;;;;29;51.13184;940.572;;;;
2023/09/08 08:34:12;;;;;;;8.5;5.2;;;;;;;28.9;51.22852;940.5012;;;;
2023/09/08 08:36:39;;;;;;;6;4.7;;;;;;;28.92;50.15918;940.5511;;;;
2023/09/08 08:39:05;;;;;;;6.7;5.2;;;;;;;28.71;52.88281;940.5039;;;;
2023/09/08 08:41:30;;;;;;;5.1;4.6;;;;;;;28.71;52.2168;940.4236;;;;
2023/09/08 08:43:55;;;;;;;5.8;4.9;;;;;;;28.32;54.39453;940.4778;;;;
2023/09/08 08:46:22;;;;;;;6.4;5.1;;;;;;;28.45;52.04492;940.4365;;;;
2023/09/08 08:48:48;;;;;;;5.6;5;;;;;;;29.1;51.78613;940.4377;;;;
2023/09/08 08:51:13;;;;;;;7.6;5;;;;;;;29.32;50.39453;940.4515;;;;
2023/09/08 08:53:38;;;;;;;5.5;4.9;;;;;;;28.89;53.16797;940.4739;;;;
2023/09/08 08:56:03;;;;;;;5.1;4.6;;;;;;;29.43;48.55957;940.4244;;;;
2023/09/08 08:58:29;;;;;;;5.4;4.9;;;;;;;29.32;49.35742;940.4578;;;;
2023/09/08 09:00:56;;;;;;;6.1;5;;;;;;;29.89;48.43066;940.4363;;;;
2023/09/08 09:03:21;;;;;;;5.7;4.8;;;;;;;29.6;48.69629;940.4141;;;;
2023/09/08 09:05:46;;;;;;;5.2;4.7;;;;;;;29.79;48.20508;940.459;;;;
2023/09/08 09:08:11;;;;;;;8.4;5;;;;;;;29.26;51.43457;940.3876;;;;
2023/09/08 09:10:39;;;;;;;5.2;4.7;;;;;;;28.96;52.43652;940.4506;;;;
2023/09/08 09:13:05;;;;;;;5.5;5;;;;;;;28.77;52.03516;940.4133;;;;
2023/09/08 09:15:30;;;;;;;5.3;4.8;;;;;;;28.12;57.08008;940.3826;;;;
2023/09/08 09:17:54;;;;;;;8;4.7;;;;;;;27.96;54.7666;940.3692;;;;
2023/09/08 09:20:22;;;;;;;11.9;5.3;;;;;;;27.82;59.20313;940.3593;;;;
2023/09/08 09:22:47;;;;;;;8;4.7;;;;;;;27.96;55.74219;940.3607;;;;
2023/09/08 09:25:14;;;;;;;6.4;4.9;;;;;;;27.84;54.0166;940.3323;;;;
2023/09/08 09:27:42;;;;;;;6.3;4.7;;;;;;;27.94;57.67578;940.2914;;;;
2023/09/08 09:30:05;;;;;;;7.6;5.4;;;;;;;27.31;56.84766;940.2343;;;;
2023/09/08 09:32:31;;;;;;;5.8;4.8;;;;;;;27.26;55.05078;940.2587;;;;
2023/09/08 09:34:56;;;;;;;6.7;4.5;;;;;;;27.3;57.9834;940.2495;;;;
2023/09/08 09:37:23;;;;;;;5.7;4.8;;;;;;;27.49;59.88574;940.2567;;;;
2023/09/08 09:39:48;;;;;;;6.9;5.1;;;;;;;27.48;62.35059;940.2458;;;;
2023/09/08 09:42:15;;;;;;;7.8;5.3;;;;;;;27.34;66.11621;940.2366;;;;
2023/09/08 09:44:40;;;;;;;7;5.8;;;;;;;27.49;64.66602;940.1555;;;;
2023/09/08 09:47:06;;;;;;;6.1;5.5;;;;;;;27.21;62.96582;940.1746;;;;
2023/09/08 09:49:33;;;;;;;6.1;5.5;;;;;;;27.45;65.49023;940.1962;;;;
2023/09/08 09:51:58;;;;;;;6;5.3;;;;;;;27.71;63.46289;940.2263;;;;
2023/09/08 09:54:23;;;;;;;6.1;5.2;;;;;;;27.94;63.36328;940.1731;;;;
2023/09/08 09:56:50;;;;;;;7.2;6;;;;;;;27.94;63.42383;940.1145;;;;
2023/09/08 09:59:15;;;;;;;5.8;5.2;;;;;;;28.04;64.28223;940.0751;;;;
2023/09/08 10:01:40;;;;;;;7.1;5.7;;;;;;;27.65;64.15527;940.0466;;;;
2023/09/08 10:04:07;;;;;;;7.2;5.6;;;;;;;27.7;66.04883;940.0353;;;;
2023/09/08 10:06:32;;;;;;;6.4;5.7;;;;;;;28.13;63.45117;939.9924;;;;
2023/09/08 10:08:58;;;;;;;6.3;5.7;;;;;;;28.32;62.0498;939.9168;;;;
2023/09/08 10:11:24;;;;;;;7;6.1;;;;;;;27.99;64.67676;939.9426;;;;
2023/09/08 10:13:49;;;;;;;6.3;5.7;;;;;;;28.09;67.6875;939.9453;;;;
2023/09/08 10:16:14;;;;;;;6.5;5.6;;;;;;;28.27;64.68262;939.9564;;;;
2023/09/08 10:18:39;;;;;;;6.5;5.9;;;;;;;28.42;66.5459;939.9037;;;;
2023/09/08 10:21:06;;;;;;;8.2;6.1;;;;;;;28.19;68.00977;939.9454;;;;
2023/09/08 10:23:30;;;;;;;6.9;6.1;;;;;;;28.58;66.99805;939.9514;;;;
2023/09/08 10:25:57;;;;;;;6.5;5.8;;;;;;;28.92;65.02734;939.9353;;;;
2023/09/08 10:28:22;;;;;;;6.7;6;;;;;;;28.84;65.87207;939.9168;;;;
2023/09/08 10:30:47;;;;;;;6.8;6.1;;;;;;;28.57;67.53223;939.8828;;;;
2023/09/08 10:33:14;;;;;;;6.9;5.8;;;;;;;29.23;61.90137;939.8563;;;;
2023/09/08 10:35:39;;;;;;;6.3;5.3;;;;;;;29.91;60.38672;939.8367;;;;
2023/09/08 10:38:05;;;;;;;7.9;5.9;;;;;;;29.76;63.72754;939.7988;;;;
2023/09/08 10:40:33;;;;;;;6.5;5.8;;;;;;;29.81;60.76563;939.7963;;;;
2023/09/08 10:42:55;;;;;;;7.6;5.5;;;;;;;29.64;60.98145;939.7333;;;;
2023/09/08 10:45:20;;;;;;;7.7;6.4;;;;;;;29.73;63.2832;939.7649;;;;
2023/09/08 10:47:45;;;;;;;6.4;5.8;;;;;;;30.11;61.23535;939.7715;;;;
2023/09/08 10:50:15;;;;;;;7.7;5.4;;;;;;;30.17;59.82324;939.7748;;;;
2023/09/08 10:52:40;;;;;;;6.1;5.5;;;;;;;30.33;59.25879;939.7452;;;;
2023/09/08 10:55:09;;;;;;;6.8;5.7;;;;;;;30.73;60.125;939.7139;;;;
2023/09/08 10:57:34;;;;;;;7.1;5.5;;;;;;;30.71;60.63477;939.7162;;;;
2023/09/08 11:00:05;;;;;;;6.3;5.2;;;;;;;31.94;53.80273;939.6652;;;;
2023/09/08 11:02:26;;;;;;;6;5.3;;;;;;;32.86;53.08203;939.6894;;;;
2023/09/08 11:04:51;;;;;;;6.2;5.6;;;;;;;32.9;51.44238;939.6711;;;;
2023/09/08 11:07:17;;;;;;;5.7;5.1;;;;;;;33.69;49.18555;939.6414;;;;
2023/09/08 11:09:43;;;;;;;9.1;5.7;;;;;;;34.6;47.97168;939.591;;;;
2023/09/08 11:12:10;;;;;;;6;5.4;;;;;;;34.29;49.36035;939.5801;;;;
2023/09/08 11:14:35;;;;;;;6;5.5;;;;;;;33.34;51.7207;939.4667;;;;
2023/09/08 11:17:01;;;;;;;7.5;5.5;;;;;;;32.59;52.17578;939.5731;;;;
2023/09/08 11:19:26;;;;;;;5.8;5.2;;;;;;;32.71;52.77734;939.5541;;;;
2023/09/08 11:21:52;;;;;;;6.1;5.3;;;;;;;34.54;47.42188;939.5739;;;;
2023/09/08 11:24:18;;;;;;;5.8;5.2;;;;;;;34.14;47.32129;939.5327;;;;
2023/09/08 11:26:46;;;;;;;5.9;5.3;;;;;;;33.31;49.97461;939.5719;;;;
2023/09/08 11:29:10;;;;;;;6.5;5.7;;;;;;;32.33;54.30469;939.5117;;;;
2023/09/08 11:31:38;;;;;;;6;5.4;;;;;;;31.87;56.8252;939.516;;;;
2023/09/08 11:34:05;;;;;;;6.3;5.7;;;;;;;32.09;54.31152;939.5615;;;;
2023/09/08 11:36:30;;;;;;;6.4;5.5;;;;;;;31.86;54.66699;939.5336;;;;
2023/09/08 11:38:55;;;;;;;6.3;5.6;;;;;;;31.11;56.2998;939.5455;;;;
2023/09/08 11:41:23;;;;;;;7.5;5.7;;;;;;;31.17;55.56641;939.5059;;;;
2023/09/08 11:43:45;;;;;;;5.9;5.4;;;;;;;30.39;60.52148;939.4584;;;;
2023/09/08 11:46:10;;;;;;;5.7;5.2;;;;;;;30.58;60.49902;939.4567;;;;
2023/09/08 11:48:35;;;;;;;5.8;5.3;;;;;;;31.1;56.64453;939.4856;;;;
2023/09/08 11:51:00;;;;;;;5.9;5.3;;;;;;;30.9;57.80273;939.4841;;;;
2023/09/08 11:53:27;;;;;;;6;5.4;;;;;;;30.52;60.0498;939.4673;;;;
2023/09/08 11:55:50;;;;;;;5.9;5.3;;;;;;;30.82;57.81836;939.4551;;;;
2023/09/08 11:58:17;;;;;;;6.1;5.5;;;;;;;30.6;58.50684;939.4498;;;;
2023/09/08 12:00:43;;;;;;;6.4;5.8;;;;;;;30.55;57.66406;939.4515;;;;
2023/09/08 12:03:11;;;;;;;8.1;5.6;;;;;;;30.39;61.10547;939.3897;;;;
2023/09/08 12:05:36;;;;;;;6.5;5.9;;;;;;;29.74;62.80762;939.4047;;;;
2023/09/08 12:08:01;;;;;;;6.7;6;;;;;;;29.6;63.90918;939.3698;;;;
2023/09/08 12:10:26;;;;;;;6.1;5.5;;;;;;;29.56;62.9248;939.3923;;;;
2023/09/08 12:12:53;;;;;;;7.4;6.3;;;;;;;28.74;67.07031;939.3782;;;;
2023/09/08 12:15:17;;;;;;;6.4;5.8;;;;;;;28.93;66.34863;939.3961;;;;
2023/09/08 12:17:42;;;;;;;6.4;5.8;;;;;;;29.3;65.80859;939.3535;;;;
2023/09/08 12:20:12;;;;;;;6.2;5.6;;;;;;;29.63;62.09961;939.2985;;;;
2023/09/08 12:22:37;;;;;;;7.5;6.2;;;;;;;29.74;62.52051;939.3161;;;;
2023/09/08 12:25:02;;;;;;;6.8;6.1;;;;;;;29.3;63.05664;939.3265;;;;
2023/09/08 12:27:30;;;;;;;7;6.2;;;;;;;29.12;66.86621;939.3152;;;;
2023/09/08 12:29:56;;;;;;;7.7;6.1;;;;;;;29.37;63.00586;939.2886;;;;
2023/09/08 12:32:24;;;;;;;6.7;6;;;;;;;29.48;63.86719;939.335;;;;
2023/09/08 12:34:49;;;;;;;7.5;6.2;;;;;;;29.47;63.24512;939.2947;;;;
2023/09/08 12:37:15;;;;;;;6.5;5.8;;;;;;;29.66;61.13867;939.2621;;;;
2023/09/08 12:39:40;;;;;;;8.7;5.9;;;;;;;29.34;65.47852;939.2406;;;;
2023/09/08 12:42:06;;;;;;;7;6.3;;;;;;;29;64.52539;939.3084;;;;
2023/09/08 12:44:31;;;;;;;6.9;6.2;;;;;;;28.8;66.9248;939.2509;;;;
2023/09/08 12:46:57;;;;;;;7.2;6.4;;;;;;;29.18;65.58789;939.3025;;;;
2023/09/08 12:49:22;;;;;;;7.2;6.5;;;;;;;29.05;65.37891;939.2946;;;;
2023/09/08 12:51:49;;;;;;;7.3;6.3;;;;;;;28.99;66.02539;939.2832;;;;
2023/09/08 12:54:14;;;;;;;8;6.2;;;;;;;28.93;64.5625;939.2305;;;;
2023/09/08 12:56:40;;;;;;;7;6.3;;;;;;;29.03;66.14844;939.2515;;;;
2023/09/08 12:59:05;;;;;;;7.1;6.4;;;;;;;29.23;65.91602;939.2452;;;;
2023/09/08 13:01:32;;;;;;;7.2;6.1;;;;;;;29.44;63.49219;939.248;;;;
2023/09/08 13:03:57;;;;;;;7.2;6.5;;;;;;;29.48;63.12793;939.193;;;;
2023/09/08 13:06:24;;;;;;;7.4;6.7;;;;;;;29.21;64.93652;939.2269;;;;
2023/09/08 13:08:49;;;;;;;6.8;6.2;;;;;;;29.38;62.74512;939.2082;;;;
2023/09/08 13:11:14;;;;;;;7.2;6.5;;;;;;;29.44;63.72949;939.1738;;;;
2023/09/08 13:13:39;;;;;;;6.7;6;;;;;;;29.33;65.14551;939.2786;;;;
2023/09/08 13:16:08;;;;;;;6.6;5.9;;;;;;;29.2;64.56641;939.2432;;;;
2023/09/08 13:18:38;;;;;;;8.4;6.2;;;;;;;29.41;59.80566;939.1916;;;;
2023/09/08 13:20:58;;;;;;;7.8;6.2;;;;;;;29.36;62.68262;939.1274;;;;
2023/09/08 13:23:24;;;;;;;7;6.3;;;;;;;29.51;61.44043;939.1844;;;;
2023/09/08 13:25:49;;;;;;;7.1;6.5;;;;;;;29.58;62.42676;939.1464;;;;
2023/09/08 13:28:14;;;;;;;6.3;5.7;;;;;;;29.38;62.89941;939.1287;;;;
2023/09/08 13:30:39;;;;;;;8.8;6.1;;;;;;;29.41;62.66504;939.0966;;;;
2023/09/08 13:33:08;;;;;;;6.5;5.9;;;;;;;29.64;62.07813;939.1166;;;;
2023/09/08 13:35:33;;;;;;;9.2;6.2;;;;;;;29.25;62.75098;939.1655;;;;
2023/09/08 13:37:59;;;;;;;8;6.2;;;;;;;29.35;62.77734;939.1133;;;;
2023/09/08 13:40:24;;;;;;;7.5;6.3;;;;;;;29.26;64.95605;939.0605;;;;
2023/09/08 13:42:49;;;;;;;7.2;6;;;;;;;29.19;63.96777;939.0273;;;;
2023/09/08 13:45:15;;;;;;;8.8;6.3;;;;;;;29.05;64.61719;939.0597;;;;
2023/09/08 13:47:41;;;;;;;6.5;5.9;;;;;;;29.14;65.08203;939.0357;;;;
2023/09/08 13:50:06;;;;;;;6.9;6.3;;;;;;;29.23;62.15234;939.0165;;;;
2023/09/08 13:52:32;;;;;;;6.2;5.6;;;;;;;29.28;62.7666;939.0284;;;;
2023/09/08 13:54:57;;;;;;;7.3;6;;;;;;;29.21;62.61426;938.9817;;;;
2023/09/08 13:57:25;;;;;;;7;6.3;;;;;;;29.47;62.26855;938.9622;;;;
2023/09/08 13:59:47;;;;;;;6.9;6.2;;;;;;;29.46;61.93359;938.9185;;;;
2023/09/08 14:02:12;;;;;;;6.9;6.3;;;;;;;29.4;61.41406;938.8738;;;;
2023/09/08 14:04:39;;;;;;;7.1;6;;;;;;;29.28;61.02734;938.8831;;;;
2023/09/08 14:07:03;;;;;;;6.7;6;;;;;;;29.31;62.60547;938.9246;;;;
2023/09/08 14:09:28;;;;;;;6.4;5.8;;;;;;;29.46;61.44531;938.8797;;;;
2023/09/08 14:11:53;;;;;;;6.5;5.9;;;;;;;29.33;63.21484;939.0023;;;;
2023/09/08 14:14:21;;;;;;;7.1;6.4;;;;;;;29.37;63.14844;938.9955;;;;
2023/09/08 14:16:45;;;;;;;7;6;;;;;;;29.25;63.82324;938.976;;;;
2023/09/08 14:19:12;;;;;;;7.5;6.7;;;;;;;29.29;62.58984;938.9022;;;;
2023/09/08 14:21:39;;;;;;;7.3;6.4;;;;;;;29.2;63.04297;938.9352;;;;
2023/09/08 14:24:02;;;;;;;7.8;6.6;;;;;;;28.95;62.57715;938.9866;;;;
2023/09/08 14:26:27;;;;;;;8.4;6.3;;;;;;;29.02;62.84961;938.9219;;;;
2023/09/08 14:28:53;;;;;;;7.3;6.1;;;;;;;28.99;63.29785;938.966;;;;
2023/09/08 14:31:18;;;;;;;6.9;6.3;;;;;;;29.11;63.89844;938.9342;;;;
2023/09/08 14:33:43;;;;;;;8.3;6.9;;;;;;;29.28;62.60059;938.9258;;;;
2023/09/08 14:36:08;;;;;;;8;6.8;;;;;;;29.14;63.41504;938.907;;;;
2023/09/08 14:38:34;;;;;;;8.5;6.4;;;;;;;29.05;62.85449;938.9659;;;;
2023/09/08 14:41:00;;;;;;;7.2;6.5;;;;;;;28.99;63.90527;938.9981;;;;
2023/09/08 14:43:25;;;;;;;7.7;6.5;;;;;;;28.96;64.54297;938.9534;;;;
2023/09/08 14:45:50;;;;;;;7.7;6.4;;;;;;;28.85;63.58691;939.0128;;;;